Time;durP1;ratioP1;P1;durP2;ratioP2;P2;SDS_P1;SDS_P2;PMS_P1;PMS_P2;Temp;Humidity;BMP_temperature;BMP_pressure;BME280_temperature;BME280_humidity;BME280_pressure;Samples;Min_cycle;Max_cycle;Signal;HPM_P1;HPM_P2
2022/03/18 00:00:38;;;;;;;14.50;9.77;;;;;;;1.46;84.14;103843.13;5042607;28;20025;-68
2022/03/18 00:03:03;;;;;;;15.50;9.40;;;;;;;1.37;84.00;103849.16;5042523;28;20075;-69
2022/03/18 00:05:29;;;;;;;12.32;8.90;;;;;;;1.33;84.34;103846.72;5041969;28;20538;-69
2022/03/18 00:07:55;;;;;;;13.00;8.77;;;;;;;1.28;84.52;103858.72;5042410;28;20111;-68
2022/03/18 00:10:20;;;;;;;13.77;8.70;;;;;;;1.26;84.69;103849.78;5042178;28;20163;-69
2022/03/18 00:12:47;;;;;;;14.15;8.93;;;;;;;1.25;84.29;103858.03;5042262;28;20063;-69
2022/03/18 00:15:14;;;;;;;13.38;9.27;;;;;;;1.19;84.27;103856.56;5041297;28;20472;-69
2022/03/18 00:17:40;;;;;;;11.48;7.82;;;;;;;1.13;84.88;103862.38;5041712;28;20025;-69
2022/03/18 00:20:08;;;;;;;11.27;7.05;;;;;;;1.12;85.15;103857.94;5042737;28;20577;-69
2022/03/18 00:22:33;;;;;;;10.60;6.60;;;;;;;1.07;84.94;103846.53;5042314;28;20114;-69
2022/03/18 00:24:59;;;;;;;12.07;6.85;;;;;;;1.04;85.14;103846.69;5042212;28;20033;-69
2022/03/18 00:27:26;;;;;;;14.98;8.38;;;;;;;1.01;85.44;103858.59;5041712;28;20032;-69
2022/03/18 00:29:52;;;;;;;13.57;8.40;;;;;;;0.99;85.26;103848.81;5041179;28;20740;-69
2022/03/18 00:32:17;;;;;;;12.20;7.80;;;;;;;0.95;85.70;103848.13;5041488;28;20032;-68
2022/03/18 00:34:43;;;;;;;12.57;7.85;;;;;;;0.92;85.98;103848.31;5042413;28;20035;-69
2022/03/18 00:37:09;;;;;;;10.10;7.07;;;;;;;0.90;86.39;103847.53;5042019;28;20033;-68
2022/03/18 00:39:34;;;;;;;12.52;7.43;;;;;;;0.88;86.41;103852.19;5042189;28;20163;-69
2022/03/18 00:42:00;;;;;;;14.65;7.55;;;;;;;0.87;86.09;103857.69;5041857;28;20415;-69
2022/03/18 00:44:25;;;;;;;12.70;8.15;;;;;;;0.83;85.82;103862.41;5041037;28;20108;-69
2022/03/18 00:46:54;;;;;;;14.05;8.30;;;;;;;0.83;85.76;103873.22;5042556;28;20033;-69
2022/03/18 00:52:07;;;;;;;14.35;8.82;;;;;;;0.83;85.97;103875.94;5045698;28;20090;-70
2022/03/18 00:54:38;;;;;;;13.25;7.53;;;;;;;0.85;86.07;103871.28;5044959;28;20033;-69
2022/03/18 00:57:05;;;;;;;11.18;7.25;;;;;;;0.87;86.09;103884.75;5045926;28;20048;-69
2022/03/18 00:59:30;;;;;;;13.13;8.00;;;;;;;0.85;86.07;103884.81;5043972;28;21140;-69
2022/03/18 01:01:57;;;;;;;14.52;8.10;;;;;;;0.83;85.64;103894.00;5045060;28;20045;-69
2022/03/18 01:04:24;;;;;;;12.63;8.48;;;;;;;0.78;85.55;103891.56;5045094;28;20032;-69
2022/03/18 01:06:50;;;;;;;11.10;7.35;;;;;;;0.72;85.70;103900.94;5045004;28;20094;-69
2022/03/18 01:09:16;;;;;;;11.30;7.32;;;;;;;0.67;85.64;103892.22;5044831;28;20663;-69
2022/03/18 01:11:41;;;;;;;11.48;6.40;;;;;;;0.65;86.21;103893.25;5045408;28;20017;-69
2022/03/18 01:14:07;;;;;;;13.75;6.50;;;;;;;0.63;85.98;103900.59;5044733;28;20063;-69
2022/03/18 01:16:33;;;;;;;8.70;5.50;;;;;;;0.61;86.16;103897.09;5025643;28;20041;-69
2022/03/18 01:18:58;;;;;;;11.75;5.38;;;;;;;0.56;86.21;103893.78;5025382;28;20487;-69
2022/03/18 01:21:23;;;;;;;11.32;5.30;;;;;;;0.50;86.22;103904.00;5024700;28;20048;-69
2022/03/18 01:23:48;;;;;;;8.85;5.25;;;;;;;0.44;86.21;103898.09;5024979;28;20029;-69
2022/03/18 01:26:14;;;;;;;10.43;6.13;;;;;;;0.38;86.41;103896.63;5024242;28;20022;-69
2022/03/18 01:28:39;;;;;;;11.55;8.02;;;;;;;0.34;86.48;103886.06;5024478;28;20029;-69
2022/03/18 01:31:04;;;;;;;16.85;9.38;;;;;;;0.32;86.64;103888.88;5024991;28;20413;-69
2022/03/18 01:33:30;;;;;;;14.30;9.30;;;;;;;0.31;86.62;103889.84;5024374;28;20470;-69
2022/03/18 01:35:55;;;;;;;17.40;11.68;;;;;;;0.29;86.79;103888.19;5026780;28;20025;-69
2022/03/18 01:38:20;;;;;;;16.23;11.20;;;;;;;0.29;87.04;103893.59;5044600;28;20429;-69
2022/03/18 01:40:46;;;;;;;16.15;11.07;;;;;;;0.27;86.90;103893.69;5044734;28;20025;-69
2022/03/18 01:43:11;;;;;;;13.88;9.80;;;;;;;0.24;86.65;103894.72;5043382;28;20032;-69
2022/03/18 01:45:38;;;;;;;11.40;7.30;;;;;;;0.12;86.46;103895.44;5045143;28;20605;-69
2022/03/18 01:48:04;;;;;;;10.68;7.15;;;;;;;0.05;86.50;103896.75;5044600;28;20498;-69
2022/03/18 01:50:30;;;;;;;16.38;7.72;;;;;;;-0.03;87.00;103894.47;5043787;28;20029;-69
2022/03/18 01:52:56;;;;;;;13.20;7.45;;;;;;;-0.09;87.10;103891.25;5044298;28;20029;-69
2022/03/18 01:55:22;;;;;;;15.02;7.45;;;;;;;-0.11;87.58;103887.75;5044429;28;20021;-69
2022/03/18 01:57:47;;;;;;;13.48;8.05;;;;;;;-0.13;87.69;103882.44;5044006;28;20108;-69
2022/03/18 02:00:13;;;;;;;14.82;8.45;;;;;;;-0.10;87.79;103889.47;5043336;28;20028;-69
2022/03/18 02:02:39;;;;;;;12.23;7.60;;;;;;;-0.05;87.85;103895.50;5043819;28;20049;-69
2022/03/18 02:05:05;;;;;;;12.75;7.82;;;;;;;0.02;87.79;103893.34;5045083;28;20112;-69
2022/03/18 02:07:30;;;;;;;13.50;8.10;;;;;;;0.08;87.81;103898.38;5043274;28;20028;-69
2022/03/18 02:09:56;;;;;;;12.63;7.43;;;;;;;0.11;87.63;103906.34;5044041;28;20094;-69
2022/03/18 02:12:21;;;;;;;13.13;7.93;;;;;;;0.11;87.42;103912.59;5043925;28;20108;-70
2022/03/18 02:14:48;;;;;;;12.85;7.70;;;;;;;0.08;87.17;103909.19;5042922;28;20471;-70
2022/03/18 02:17:18;;;;;;;10.70;6.78;;;;;;;0.03;87.32;103914.84;5033289;28;20472;-69
2022/03/18 02:19:45;;;;;;;11.93;7.28;;;;;;;-0.01;87.48;103914.16;5024090;28;20025;-69
2022/03/18 02:22:11;;;;;;;10.48;7.35;;;;;;;-0.05;87.46;103912.59;5023373;28;20071;-69
2022/03/18 02:24:41;;;;;;;14.10;7.35;;;;;;;-0.08;87.42;103910.06;5024408;28;20084;-69
2022/03/18 02:27:07;;;;;;;13.30;8.25;;;;;;;-0.13;87.68;103905.88;5040846;28;20021;-70
2022/03/18 02:29:33;;;;;;;14.00;8.13;;;;;;;-0.15;87.95;103913.19;5042774;28;20024;-69
2022/03/18 02:32:00;;;;;;;15.25;7.78;;;;;;;-0.13;88.11;103909.44;5043479;28;20021;-69
2022/03/18 02:34:27;;;;;;;12.98;8.43;;;;;;;-0.07;88.02;103911.81;5043242;28;20025;-70
2022/03/18 02:36:52;;;;;;;12.15;7.78;;;;;;;-0.06;87.70;103918.06;5043463;28;20028;-69
2022/03/18 02:39:18;;;;;;;12.77;8.40;;;;;;;-0.06;87.24;103928.88;5043167;28;20029;-69
2022/03/18 02:41:43;;;;;;;11.65;6.80;;;;;;;-0.09;87.09;103935.34;5043518;28;20036;-69
2022/03/18 02:44:08;;;;;;;12.88;7.13;;;;;;;-0.12;87.27;103923.81;5042475;28;20441;-65
2022/03/18 02:46:34;;;;;;;10.38;6.45;;;;;;;-0.21;87.18;103935.13;5042889;28;20040;-69
2022/03/18 02:49:01;;;;;;;12.73;6.53;;;;;;;-0.30;87.50;103934.69;5043443;28;20512;-70
2022/03/18 02:51:27;;;;;;;12.38;6.43;;;;;;;-0.35;87.82;103931.38;5042866;28;20561;-69
2022/03/18 02:53:53;;;;;;;14.75;7.28;;;;;;;-0.36;88.46;103928.72;5043511;28;20029;-70
2022/03/18 02:56:18;;;;;;;12.82;6.65;;;;;;;-0.37;88.68;103932.41;5042640;28;20550;-70
2022/03/18 02:58:43;;;;;;;12.30;7.07;;;;;;;-0.36;88.72;103931.44;5042441;28;20494;-69
2022/03/18 03:01:09;;;;;;;10.82;7.15;;;;;;;-0.30;89.07;103944.63;5042150;28;20492;-69
2022/03/18 03:03:34;;;;;;;11.70;7.25;;;;;;;-0.27;89.10;103947.16;5041727;28;20028;-70
2022/03/18 03:08:25;;;;;;;15.27;7.43;;;;;;;-0.26;88.74;103933.53;4999025;22;20059;-70
2022/03/18 03:10:50;;;;;;;13.75;7.30;;;;;;;-0.28;88.47;103948.09;5003475;28;20036;-70
2022/03/18 03:13:16;;;;;;;11.10;7.18;;;;;;;-0.31;88.33;103946.44;5001770;28;20462;-69
2022/03/18 03:15:41;;;;;;;10.55;6.68;;;;;;;-0.35;88.66;103949.41;5003055;28;20073;-69
2022/03/18 03:18:07;;;;;;;13.02;7.38;;;;;;;-0.40;88.91;103946.94;5003578;28;20026;-69
2022/03/18 03:20:33;;;;;;;14.75;6.97;;;;;;;-0.40;89.26;103946.09;5002992;28;20034;-69
2022/03/18 03:22:58;;;;;;;13.35;7.60;;;;;;;-0.37;89.00;103959.41;5003489;28;20480;-69
2022/03/18 03:25:24;;;;;;;14.70;7.03;;;;;;;-0.36;89.26;103961.13;5002991;28;20149;-70
2022/03/18 03:27:53;;;;;;;13.10;7.60;;;;;;;-0.37;89.47;103962.97;5002434;28;20054;-70
2022/03/18 03:30:19;;;;;;;12.90;6.97;;;;;;;-0.38;88.92;103968.47;5002720;28;20041;-70
2022/03/18 03:32:45;;;;;;;13.25;6.68;;;;;;;-0.41;88.98;103972.19;5003333;28;20083;-69
2022/03/18 03:35:10;;;;;;;14.25;7.55;;;;;;;-0.43;89.06;103960.59;5003236;28;20022;-69
2022/03/18 03:37:36;;;;;;;10.32;6.75;;;;;;;-0.47;89.08;103959.03;5003192;28;20038;-69
2022/03/18 03:40:03;;;;;;;12.05;7.80;;;;;;;-0.47;89.29;103971.66;5003144;28;20579;-69
2022/03/18 03:42:28;;;;;;;11.45;7.10;;;;;;;-0.46;89.48;103973.38;5002522;28;20034;-69
2022/03/18 03:44:54;;;;;;;12.38;7.10;;;;;;;-0.46;89.07;103979.66;5002190;28;20026;-69
2022/03/18 03:47:19;;;;;;;14.13;7.43;;;;;;;-0.45;89.28;103980.56;5002364;28;20033;-69
2022/03/18 03:49:44;;;;;;;10.82;6.70;;;;;;;-0.46;89.02;103978.78;5002886;28;20034;-69
2022/03/18 03:52:10;;;;;;;10.60;6.57;;;;;;;-0.49;88.87;103984.38;5003057;28;20109;-68
2022/03/18 03:54:37;;;;;;;13.10;7.35;;;;;;;-0.51;89.35;103981.72;5002880;28;20037;-69
2022/03/18 03:57:02;;;;;;;15.05;7.57;;;;;;;-0.50;89.30;103988.91;5003243;28;20025;-69
2022/03/18 03:59:28;;;;;;;12.20;7.60;;;;;;;-0.47;89.65;103993.25;5002092;28;20034;-69
2022/03/18 04:01:53;;;;;;;12.02;6.78;;;;;;;-0.49;89.41;104001.44;5002695;28;20042;-69
2022/03/18 04:04:18;;;;;;;10.38;6.75;;;;;;;-0.49;89.26;104005.97;5003104;28;20050;-69
2022/03/18 04:06:43;;;;;;;11.75;6.65;;;;;;;-0.52;89.40;104002.47;5002649;28;20124;-69
2022/03/18 04:09:09;;;;;;;11.30;6.93;;;;;;;-0.56;89.15;104006.31;5002760;28;20472;-69
2022/03/18 04:11:34;;;;;;;9.93;6.03;;;;;;;-0.62;89.34;104003.91;5003190;28;20118;-69
2022/03/18 04:13:59;;;;;;;10.38;6.50;;;;;;;-0.64;89.19;104007.63;5002530;28;20014;-69
2022/03/18 04:16:25;;;;;;;13.32;7.53;;;;;;;-0.63;89.77;104017.47;5002424;28;20044;-69
2022/03/18 04:18:50;;;;;;;11.20;7.28;;;;;;;-0.62;89.60;104021.91;5002729;28;20484;-69
2022/03/18 04:21:15;;;;;;;11.57;7.28;;;;;;;-0.64;89.63;104024.72;5002899;28;20081;-70
2022/03/18 04:23:41;;;;;;;12.15;7.38;;;;;;;-0.66;89.37;104010.44;5006844;28;20041;-69
2022/03/18 04:26:06;;;;;;;12.05;7.60;;;;;;;-0.70;89.52;104022.34;5004534;28;20427;-70
2022/03/18 04:28:32;;;;;;;12.23;7.43;;;;;;;-0.72;89.57;104024.22;5005159;28;20112;-69
2022/03/18 04:30:57;;;;;;;10.43;6.93;;;;;;;-0.72;89.94;104026.91;5006324;28;21078;-71
2022/03/18 04:33:22;;;;;;;13.57;7.68;;;;;;;-0.73;90.31;104030.56;5006409;28;20037;-69
2022/03/18 04:35:47;;;;;;;16.85;7.75;;;;;;;-0.75;89.98;104028.91;5005023;28;20040;-70
2022/03/18 04:38:13;;;;;;;12.98;8.13;;;;;;;-0.81;90.17;104024.72;5006048;28;20056;-69
2022/03/18 04:40:38;;;;;;;15.48;8.63;;;;;;;-0.82;90.17;104031.03;5006597;28;20034;-69
2022/03/18 04:43:03;;;;;;;12.38;8.05;;;;;;;-0.82;90.18;104031.91;5006166;28;20037;-69
2022/03/18 04:45:29;;;;;;;14.07;8.48;;;;;;;-0.79;90.37;104037.16;5005843;28;20113;-69
2022/03/18 04:47:54;;;;;;;13.93;8.27;;;;;;;-0.77;90.32;104036.19;5005868;28;20034;-70
2022/03/18 04:50:20;;;;;;;14.82;9.45;;;;;;;-0.79;90.02;104033.59;5006569;28;20113;-69
2022/03/18 04:52:45;;;;;;;15.60;9.90;;;;;;;-0.79;89.89;104037.16;5006226;28;20049;-69
2022/03/18 04:55:11;;;;;;;15.15;10.35;;;;;;;-0.76;89.66;104041.53;5005691;28;20695;-68
2022/03/18 04:57:36;;;;;;;15.95;10.43;;;;;;;-0.71;90.26;104038.56;5005575;28;20049;-68
2022/03/18 05:00:03;;;;;;;14.65;10.80;;;;;;;-0.71;89.98;104043.97;5005957;28;20041;-69
2022/03/18 05:02:29;;;;;;;14.15;10.30;;;;;;;-0.70;89.75;104048.44;5004895;28;20669;-69
2022/03/18 05:04:54;;;;;;;12.88;8.85;;;;;;;-0.76;89.80;104046.03;5006498;28;20030;-69
2022/03/18 05:07:20;;;;;;;15.63;9.15;;;;;;;-0.80;89.71;104045.34;5005608;28;20045;-69
2022/03/18 05:09:46;;;;;;;13.30;10.40;;;;;;;-0.83;89.78;104056.28;5004785;28;20034;-69
2022/03/18 05:12:13;;;;;;;14.52;9.80;;;;;;;-0.85;89.89;104064.47;5005442;28;20595;-68
2022/03/18 05:14:40;;;;;;;15.30;10.32;;;;;;;-0.86;90.00;104062.72;5005050;28;20456;-69
2022/03/18 05:17:07;;;;;;;20.55;11.23;;;;;;;-0.82;90.20;104068.81;5005514;28;20391;-68
2022/03/18 05:19:33;;;;;;;17.13;11.35;;;;;;;-0.85;90.05;104075.25;5005327;28;20366;-69
2022/03/18 05:21:58;;;;;;;15.65;11.18;;;;;;;-0.84;89.95;104073.44;5005426;28;20029;-69
2022/03/18 05:24:26;;;;;;;16.85;11.35;;;;;;;-0.86;90.09;104080.72;5005301;28;20033;-68
2022/03/18 05:26:51;;;;;;;16.55;11.45;;;;;;;-0.87;90.20;104078.97;5004940;28;20095;-69
2022/03/18 05:29:16;;;;;;;18.17;12.23;;;;;;;-0.90;90.34;104081.84;4996008;28;20540;-68
2022/03/18 05:31:43;;;;;;;18.58;12.40;;;;;;;-0.94;90.56;104078.41;4985650;28;20026;-70
2022/03/18 05:34:08;;;;;;;19.48;13.02;;;;;;;-0.96;90.31;104079.41;4986165;28;20038;-65
2022/03/18 05:36:33;;;;;;;21.95;14.07;;;;;;;-0.99;90.82;104079.59;4985083;28;20447;-69
2022/03/18 05:38:59;;;;;;;22.95;14.15;;;;;;;-1.00;90.53;104085.94;5004608;28;20033;-69
2022/03/18 05:41:24;;;;;;;19.50;14.32;;;;;;;-0.99;90.85;104074.19;5003437;28;20481;-69
2022/03/18 05:43:50;;;;;;;19.50;14.02;;;;;;;-1.00;90.67;104072.44;5003923;28;20021;-69
2022/03/18 05:46:15;;;;;;;21.25;14.30;;;;;;;-1.01;90.95;104081.47;5003709;28;20121;-69
2022/03/18 05:48:40;;;;;;;20.17;14.50;;;;;;;-1.03;90.95;104070.75;5005292;28;20038;-69
2022/03/18 05:51:06;;;;;;;19.65;14.05;;;;;;;-1.03;90.92;104073.47;5005933;28;20029;-68
2022/03/18 05:53:31;;;;;;;22.70;15.65;;;;;;;-0.98;90.55;104078.63;5004292;28;20030;-68
2022/03/18 05:58:41;;;;;;;24.90;14.95;;;;;;;-0.85;91.14;104101.38;5003629;28;20471;-69
2022/03/18 06:01:06;;;;;;;20.30;13.85;;;;;;;-0.83;91.07;104102.16;5001649;28;20109;-69
2022/03/18 06:03:33;;;;;;;20.00;14.70;;;;;;;-0.81;90.87;104097.56;5004982;28;20113;-69
2022/03/18 06:05:58;;;;;;;18.52;14.38;;;;;;;-0.81;90.66;104102.97;5005013;28;20224;-69
2022/03/18 06:13:51;;;;;;;24.45;16.00;;;;;;;-0.64;90.72;104118.31;5002947;28;20037;-69
2022/03/18 06:16:17;;;;;;;19.67;14.55;;;;;;;-0.58;90.40;104116.16;5003561;28;20113;-69
2022/03/18 06:18:42;;;;;;;25.17;15.55;;;;;;;-0.54;90.01;104117.75;5004495;28;20108;-69
2022/03/18 06:21:08;;;;;;;18.92;15.20;;;;;;;-0.46;90.12;104121.88;5004134;28;20037;-70
2022/03/18 06:23:34;;;;;;;22.10;14.63;;;;;;;-0.37;89.90;104135.78;5004539;28;20037;-69
2022/03/18 06:26:01;;;;;;;18.55;13.90;;;;;;;-0.27;89.93;104125.41;5003867;28;20026;-69
2022/03/18 06:28:27;;;;;;;17.42;12.80;;;;;;;-0.22;89.82;104134.13;5002734;28;20155;-69
2022/03/18 06:30:52;;;;;;;17.45;12.93;;;;;;;-0.25;89.24;104128.91;5003582;28;20112;-70
2022/03/18 06:33:17;;;;;;;17.90;13.07;;;;;;;-0.28;89.94;104132.63;5003982;28;20034;-69
2022/03/18 06:35:43;;;;;;;18.58;13.68;;;;;;;-0.26;90.31;104135.25;5003802;28;20121;-69
2022/03/18 06:38:08;;;;;;;19.33;14.00;;;;;;;-0.21;90.10;104135.88;5004293;28;21010;-69
2022/03/18 06:40:34;;;;;;;18.52;14.77;;;;;;;-0.06;90.54;104145.88;5004592;28;20026;-69
2022/03/18 06:42:59;;;;;;;22.52;14.35;;;;;;;0.06;90.34;104151.63;5003583;28;20041;-69
2022/03/18 06:45:24;;;;;;;19.63;14.32;;;;;;;0.16;90.24;104147.50;5002204;28;20392;-69
2022/03/18 06:47:50;;;;;;;22.33;14.32;;;;;;;0.33;89.62;104152.84;5003146;28;20040;-68
2022/03/18 06:50:15;;;;;;;22.83;15.13;;;;;;;0.47;89.50;104150.28;5003987;28;20077;-68
2022/03/18 06:52:40;;;;;;;22.67;15.55;;;;;;;0.64;89.23;104153.88;5003936;28;20486;-68
2022/03/18 06:55:06;;;;;;;21.40;14.95;;;;;;;0.82;88.93;104158.28;5003036;28;20034;-68
2022/03/18 06:57:32;;;;;;;23.08;15.20;;;;;;;1.16;88.47;104168.06;4996023;28;20063;-68
2022/03/18 06:59:57;;;;;;;21.42;15.00;;;;;;;1.38;87.35;104154.19;5003606;28;20625;-69
2022/03/18 07:02:22;;;;;;;22.33;14.38;;;;;;;1.54;87.25;104151.44;5002830;28;20034;-69
2022/03/18 07:04:47;;;;;;;21.10;15.85;;;;;;;1.81;86.47;104167.91;5002450;28;20120;-69
2022/03/18 07:07:13;;;;;;;20.23;14.98;;;;;;;2.03;85.63;104168.38;5002955;28;20054;-68
2022/03/18 07:09:38;;;;;;;22.65;16.40;;;;;;;2.26;84.79;104166.06;5004129;28;20048;-65
2022/03/18 07:12:03;;;;;;;21.10;15.02;;;;;;;2.51;83.80;104166.28;5002252;28;20480;-69
2022/03/18 07:14:29;;;;;;;24.25;15.77;;;;;;;2.66;83.62;104164.44;5001898;28;20508;-69
2022/03/18 07:19:38;;;;;;;35.40;18.77;;;;;;;2.69;85.05;104177.84;5003378;28;20033;-66
2022/03/18 07:22:07;;;;;;;29.38;16.75;;;;;;;2.88;84.57;104166.66;5003466;28;20022;-71
2022/03/18 07:24:32;;;;;;;29.45;16.88;;;;;;;3.01;84.23;104166.75;5000240;28;20069;-70
2022/03/18 07:26:57;;;;;;;23.60;16.67;;;;;;;3.13;83.75;104174.09;5001880;28;20373;-69
2022/03/18 07:29:23;;;;;;;28.85;17.55;;;;;;;3.25;84.44;104170.59;5003371;28;20026;-69
2022/03/18 07:31:51;;;;;;;27.35;18.77;;;;;;;3.47;84.28;104174.59;5002967;28;20104;-69
2022/03/18 07:34:16;;;;;;;32.83;18.30;;;;;;;3.82;83.24;104185.81;5002604;28;20034;-69
2022/03/18 07:36:41;;;;;;;28.42;18.00;;;;;;;4.31;82.33;104187.84;5003258;28;20067;-70
2022/03/18 07:39:06;;;;;;;24.77;16.38;;;;;;;5.02;79.88;104191.81;5003503;28;20041;-72
2022/03/18 07:41:32;;;;;;;30.48;16.95;;;;;;;5.29;77.91;104202.56;5002292;28;20491;-71
2022/03/18 07:43:57;;;;;;;27.40;17.15;;;;;;;5.53;77.86;104194.44;5001952;28;20026;-71
2022/03/18 07:46:22;;;;;;;26.92;17.35;;;;;;;6.04;74.97;104202.38;5001064;28;20498;-71
2022/03/18 07:48:48;;;;;;;25.85;16.50;;;;;;;6.44;73.43;104213.78;5002774;28;20031;-72
2022/03/18 07:51:13;;;;;;;32.25;18.13;;;;;;;6.65;73.77;104203.88;5002206;28;20576;-71
2022/03/18 07:53:39;;;;;;;31.05;17.92;;;;;;;6.88;73.35;104192.97;5001587;28;20037;-71
2022/03/18 07:56:04;;;;;;;28.40;17.55;;;;;;;7.13;72.55;104205.50;5003879;28;20113;-72
2022/03/18 07:58:30;;;;;;;28.67;18.73;;;;;;;7.28;72.83;104201.50;5005931;28;20116;-73
2022/03/18 08:00:56;;;;;;;32.55;18.85;;;;;;;7.60;72.30;104196.06;5006337;28;20030;-71
2022/03/18 08:03:21;;;;;;;30.13;16.75;;;;;;;7.85;70.95;104202.22;5006530;28;20080;-71
2022/03/18 08:05:47;;;;;;;33.75;16.05;;;;;;;8.15;71.37;104196.84;4997650;28;20027;-70
2022/03/18 08:08:12;;;;;;;31.83;16.40;;;;;;;8.70;67.83;104205.75;4986263;28;20077;-70
2022/03/18 08:10:38;;;;;;;32.17;16.17;;;;;;;9.21;67.18;104201.19;4987530;28;20385;-71
2022/03/18 08:13:04;;;;;;;25.80;15.63;;;;;;;9.63;65.67;104207.38;4986384;28;20027;-70
2022/03/18 08:15:30;;;;;;;31.77;16.73;;;;;;;9.55;64.20;104213.56;5000090;28;20033;-78
2022/03/18 08:17:55;;;;;;;32.38;15.63;;;;;;;9.77;64.79;104209.69;5004759;28;20476;-68
2022/03/18 08:20:21;;;;;;;30.83;14.20;;;;;;;10.56;61.20;104208.66;5006073;28;20026;-69
2022/03/18 08:22:48;;;;;;;33.90;15.25;;;;;;;10.70;59.55;104208.19;4992279;28;20545;-68
2022/03/18 08:25:13;;;;;;;30.17;14.25;;;;;;;10.57;60.33;104205.75;4986582;28;20063;-68
2022/03/18 08:27:39;;;;;;;32.58;13.75;;;;;;;10.68;59.87;104214.84;4993182;28;20022;-68
2022/03/18 08:30:06;;;;;;;27.10;13.48;;;;;;;10.88;57.74;104224.75;4997272;28;20041;-70
2022/03/18 08:32:32;;;;;;;27.77;13.50;;;;;;;11.21;57.56;104223.34;5003988;28;20503;-70
2022/03/18 08:34:58;;;;;;;31.77;14.45;;;;;;;11.13;55.66;104234.22;5006430;28;20034;-70
2022/03/18 08:40:10;;;;;;;30.38;13.52;;;;;;;11.41;56.95;104237.88;5004389;28;20120;-70
2022/03/18 08:42:35;;;;;;;26.55;13.80;;;;;;;11.41;56.28;104238.72;5005306;28;20577;-70
2022/03/18 08:45:02;;;;;;;25.05;13.38;;;;;;;11.59;55.30;104252.50;5004203;28;20112;-70
2022/03/18 08:47:28;;;;;;;31.02;14.20;;;;;;;12.12;55.54;104256.41;5005599;28;20467;-70
2022/03/18 08:49:53;;;;;;;25.55;13.45;;;;;;;12.25;53.71;104259.59;5003938;28;20060;-71
2022/03/18 08:52:18;;;;;;;24.90;14.77;;;;;;;12.39;56.44;104260.94;5000923;28;20042;-70
2022/03/18 08:54:44;;;;;;;25.38;11.02;;;;;;;12.34;52.05;104275.19;5006524;28;20655;-69
2022/03/18 08:57:09;;;;;;;21.77;11.43;;;;;;;12.16;53.32;104266.06;5005479;28;20075;-63
2022/03/18 08:59:35;;;;;;;20.23;9.30;;;;;;;12.20;50.85;104264.72;5004394;28;20392;-69
2022/03/18 09:02:00;;;;;;;18.60;9.50;;;;;;;12.73;51.56;104270.16;5008768;28;20488;-68
2022/03/18 09:04:25;;;;;;;19.90;9.25;;;;;;;14.65;48.86;104271.31;5013579;28;20092;-71
2022/03/18 09:06:51;;;;;;;17.98;9.07;;;;;;;16.50;42.48;104268.91;5013162;28;20053;-71
2022/03/18 09:09:16;;;;;;;15.45;8.90;;;;;;;17.40;39.93;104277.19;5010952;28;20644;-70
2022/03/18 09:11:42;;;;;;;15.48;7.45;;;;;;;18.49;38.18;104271.56;5009643;28;20033;-68
2022/03/18 09:14:07;;;;;;;19.00;8.57;;;;;;;19.40;34.59;104283.59;5006817;28;20037;-68
2022/03/18 09:16:36;;;;;;;12.02;6.55;;;;;;;19.47;33.89;104284.50;5002234;28;20026;-69
2022/03/18 09:19:05;;;;;;;14.88;6.50;;;;;;;20.13;32.42;104281.97;4986449;28;20057;-69
2022/03/18 09:21:30;;;;;;;13.05;5.70;;;;;;;19.52;32.46;104283.91;5002426;28;20133;-68
2022/03/18 09:23:56;;;;;;;14.20;6.03;;;;;;;19.03;33.39;104288.53;5006028;28;20106;-68
2022/03/18 09:26:21;;;;;;;10.23;5.20;;;;;;;18.18;33.22;104296.97;5001795;28;20069;-68
2022/03/18 09:28:46;;;;;;;14.23;6.55;;;;;;;18.78;33.52;104290.06;4996290;28;20060;-67
2022/03/18 09:31:12;;;;;;;14.85;6.03;;;;;;;19.49;34.57;104287.09;5004584;28;20030;-67
2022/03/18 09:33:38;;;;;;;13.02;5.53;;;;;;;19.38;32.07;104294.97;5005723;28;20526;-68
2022/03/18 09:36:04;;;;;;;15.98;5.68;;;;;;;19.33;31.37;104293.88;5005932;28;20025;-68
2022/03/18 09:38:29;;;;;;;11.52;4.85;;;;;;;19.29;32.61;104290.63;5008739;28;20045;-68
2022/03/18 09:40:54;;;;;;;13.40;5.28;;;;;;;20.21;30.78;104297.66;5006199;28;20040;-69
2022/03/18 09:43:20;;;;;;;14.32;5.70;;;;;;;20.95;29.30;104285.47;5004399;28;20084;-68
2022/03/18 09:45:46;;;;;;;13.65;5.30;;;;;;;20.76;29.63;104289.16;4994021;28;20378;-68
2022/03/18 09:48:11;;;;;;;13.20;4.82;;;;;;;19.82;29.47;104299.28;4985419;28;20026;-69
2022/03/18 09:50:38;;;;;;;8.27;3.30;;;;;;;19.65;29.25;104298.78;5002556;28;20123;-68
2022/03/18 09:53:05;;;;;;;10.25;4.20;;;;;;;19.41;30.33;104302.03;5004348;28;20040;-68
2022/03/18 09:55:31;;;;;;;11.32;4.72;;;;;;;19.61;29.80;104300.25;5004762;28;20156;-68
2022/03/18 09:57:57;;;;;;;9.32;3.60;;;;;;;19.37;28.52;104306.34;5002376;28;20117;-68
2022/03/18 10:00:22;;;;;;;6.80;2.70;;;;;;;19.44;27.97;104304.44;5003390;28;20161;-68
2022/03/18 10:03:12;;;;;;;10.25;4.03;;;;;;;18.41;30.98;104312.41;4994498;28;20105;-69
2022/03/18 10:05:59;;;;;;;73.47;10.73;;;;;;;18.90;30.03;104317.13;4991469;28;20049;-68
2022/03/18 10:08:33;;;;;;;9.70;3.30;;;;;;;18.64;30.22;104328.03;5004186;28;20141;-68
2022/03/18 10:10:58;;;;;;;13.23;4.43;;;;;;;19.18;30.17;104317.16;5004688;28;20484;-68
2022/03/18 10:13:24;;;;;;;15.02;4.00;;;;;;;20.11;28.48;104312.03;5004100;28;20105;-69
2022/03/18 10:15:49;;;;;;;11.57;4.60;;;;;;;19.92;27.50;104326.75;5004100;28;20108;-70
2022/03/18 10:18:16;;;;;;;10.82;3.55;;;;;;;20.14;28.42;104316.34;5003995;28;20034;-69
2022/03/18 10:20:43;;;;;;;6.32;2.65;;;;;;;19.55;28.25;104316.91;5003731;28;20056;-69
2022/03/18 10:23:14;;;;;;;9.25;3.25;;;;;;;18.54;30.02;104325.59;5004173;28;20129;-69
2022/03/18 10:25:41;;;;;;;9.82;3.08;;;;;;;19.31;29.64;104326.63;5004123;28;20057;-69
2022/03/18 10:28:10;;;;;;;9.50;3.40;;;;;;;20.27;29.32;104312.69;5004440;28;20611;-69
2022/03/18 10:30:36;;;;;;;9.82;3.33;;;;;;;20.99;27.35;104312.78;5004881;28;20022;-69
2022/03/18 10:33:02;;;;;;;8.52;3.05;;;;;;;22.06;25.38;104318.03;5004551;28;20025;-70
2022/03/18 10:38:34;;;;;;;10.18;2.97;;;;;;;21.31;26.28;104314.91;5003947;28;20134;-70
2022/03/18 10:41:07;;;;;;;10.35;3.47;;;;;;;20.91;27.28;104317.72;5003917;28;20045;-70
2022/03/18 10:43:55;;;;;;;7.20;2.70;;;;;;;20.76;27.51;104317.09;5002878;28;20022;-70
2022/03/18 10:46:21;;;;;;;8.63;3.05;;;;;;;20.52;27.74;104316.63;5002988;28;20104;-70
2022/03/18 10:49:06;;;;;;;10.88;3.40;;;;;;;21.94;29.31;104315.91;5003907;28;20030;-70
2022/03/18 10:51:34;;;;;;;9.65;3.35;;;;;;;22.13;24.89;104316.94;5002772;28;20161;-70
2022/03/18 10:53:59;;;;;;;8.88;3.63;;;;;;;21.92;24.93;104309.69;4987991;28;20045;-71
2022/03/18 10:56:25;;;;;;;13.80;3.55;;;;;;;21.09;26.97;104315.13;4983256;28;20034;-70
2022/03/18 10:58:51;;;;;;;8.18;2.83;;;;;;;20.53;27.16;104306.31;4984530;28;20792;-71
2022/03/18 11:01:18;;;;;;;9.15;4.00;;;;;;;19.66;29.15;104316.34;4983566;28;20069;-70
2022/03/18 11:03:45;;;;;;;7.33;2.73;;;;;;;19.95;28.50;104313.25;4984443;28;20033;-69
2022/03/18 11:06:11;;;;;;;9.27;2.72;;;;;;;19.20;29.22;104311.34;4983964;28;20497;-70
2022/03/18 11:08:45;;;;;;;12.77;3.90;;;;;;;19.99;29.62;104310.06;4983522;28;20045;-70
2022/03/18 11:11:18;;;;;;;14.35;3.92;;;;;;;20.05;27.33;104309.22;4983654;28;20022;-70
2022/03/18 11:14:05;;;;;;;11.02;4.60;;;;;;;20.44;29.41;104311.25;4982923;28;20022;-70
2022/03/18 11:16:34;;;;;;;11.50;4.03;;;;;;;20.88;28.12;104304.16;4981574;28;20601;-70
2022/03/18 11:19:08;;;;;;;5.03;2.03;;;;;;;22.21;25.97;104304.63;4983218;28;20567;-70
2022/03/18 11:21:40;;;;;;;10.70;4.05;;;;;;;22.44;27.19;104301.22;4987854;28;20061;-69
2022/03/18 11:24:27;;;;;;;9.82;2.88;;;;;;;21.32;27.09;104311.00;5002561;28;20048;-69
2022/03/18 11:26:53;;;;;;;11.03;3.83;;;;;;;20.29;28.56;104316.16;4997985;28;20034;-69
2022/03/18 11:29:23;;;;;;;9.57;3.72;;;;;;;21.34;28.19;104317.22;5003530;28;20113;-70
2022/03/18 11:32:12;;;;;;;12.57;4.00;;;;;;;22.63;27.62;104310.56;4998404;28;20034;-69
2022/03/18 11:34:55;;;;;;;11.25;4.40;;;;;;;23.74;26.65;104306.84;5000948;28;20034;-69